Time;durP1;ratioP1;P1;durP2;ratioP2;P2;SDS_P1;SDS_P2;PMS_P1;PMS_P2;Temp;Humidity;BMP_temperature;BMP_pressure;BME280_temperature;BME280_humidity;BME280_pressure;Samples;Min_cycle;Max_cycle;Signal;HPM_P1;HPM_P2
2022/08/15 00:00:16;;;;;;;;;;;20.10;99.90;;;;;;4998759;28;19929;-80
2022/08/15 00:02:43;;;;;;;;;;;20.20;99.90;;;;;;4998898;28;19925;-80
2022/08/15 00:05:10;;;;;;;;;;;20.00;99.90;;;;;;5005772;28;19948;-80
2022/08/15 00:07:36;;;;;;;;;;;20.00;99.90;;;;;;4998357;28;19926;-80
2022/08/15 00:10:02;;;;;;;;;;;20.00;99.90;;;;;;5000659;28;20016;-80
2022/08/15 00:12:29;;;;;;;;;;;20.00;99.90;;;;;;4983044;28;19979;-80
2022/08/15 00:14:55;;;;;;;;;;;20.00;99.90;;;;;;4998128;28;20420;-80
2022/08/15 00:17:22;;;;;;;;;;;20.00;99.90;;;;;;5001007;28;19937;-80
2022/08/15 00:19:48;;;;;;;;;;;20.00;99.90;;;;;;5000139;28;19925;-80
2022/08/15 00:22:17;;;;;;;;;;;20.00;99.90;;;;;;4999669;28;19929;-80
2022/08/15 00:24:44;;;;;;;;;;;19.90;99.90;;;;;;4984693;28;20597;-80
2022/08/15 00:27:09;;;;;;;;;;;20.00;99.90;;;;;;5006377;28;19925;-80
2022/08/15 00:29:36;;;;;;;;;;;19.90;99.90;;;;;;5005989;28;19922;-80
2022/08/15 00:32:03;;;;;;;;;;;19.90;99.90;;;;;;4994219;28;20241;-80
2022/08/15 00:34:28;;;;;;;;;;;19.90;99.90;;;;;;5008215;28;20344;-80
2022/08/15 00:36:54;;;;;;;;;;;19.90;99.90;;;;;;5011031;28;20013;-80
2022/08/15 00:39:22;;;;;;;;;;;19.90;99.90;;;;;;5009687;28;19928;-80
2022/08/15 00:41:48;;;;;;;;;;;19.80;99.90;;;;;;5009221;28;19961;-80
2022/08/15 00:44:16;;;;;;;;;;;19.70;99.90;;;;;;5011006;28;19956;-80
2022/08/15 00:46:47;;;;;;;;;;;19.70;99.90;;;;;;5009398;28;19929;-80
2022/08/15 00:49:13;;;;;;;;;;;19.70;99.90;;;;;;5002232;28;19925;-81
2022/08/15 00:51:50;;;;;;;;;;;19.70;99.90;;;;;;4983734;28;19926;-81
2022/08/15 00:54:22;;;;;;;;;;;19.70;99.90;;;;;;5003561;28;20037;-81
2022/08/15 00:56:53;;;;;;;;;;;19.70;99.90;;;;;;5001444;28;19925;-81
2022/08/15 00:59:23;;;;;;;;;;;19.70;99.90;;;;;;5004505;28;19952;-81
2022/08/15 01:01:49;;;;;;;;;;;19.70;99.90;;;;;;5001828;28;19925;-80
2022/08/15 01:04:15;;;;;;;;;;;19.70;99.90;;;;;;4997615;28;19932;-80
2022/08/15 01:06:41;;;;;;;;;;;19.70;99.90;;;;;;4984429;28;19984;-80
2022/08/15 01:09:09;;;;;;;;;;;19.90;99.90;;;;;;5023575;28;20297;-81
2022/08/15 01:11:37;;;;;;;;;;;19.70;99.90;;;;;;5009611;28;20002;-81
2022/08/15 01:14:06;;;;;;;;;;;19.70;99.90;;;;;;4995753;28;20286;-80
2022/08/15 01:16:32;;;;;;;;;;;19.70;99.90;;;;;;5015395;28;19932;-80
2022/08/15 01:18:58;;;;;;;;;;;19.50;99.90;;;;;;5010218;28;20483;-80
2022/08/15 01:21:31;;;;;;;;;;;19.60;99.90;;;;;;5019520;28;19933;-80
2022/08/15 01:24:06;;;;;;;;;;;19.50;99.90;;;;;;5013311;28;19944;-80
2022/08/15 01:26:32;;;;;;;;;;;19.50;99.90;;;;;;5011206;28;20396;-80
2022/08/15 01:28:57;;;;;;;;;;;19.50;99.90;;;;;;5027029;28;19925;-80
2022/08/15 01:31:25;;;;;;;;;;;19.50;99.90;;;;;;5006893;28;19932;-80
2022/08/15 01:33:53;;;;;;;;;;;19.40;99.90;;;;;;5035565;28;19913;-80
2022/08/15 01:36:20;;;;;;;;;;;19.50;99.90;;;;;;5057178;28;19908;-80
2022/08/15 01:38:48;;;;;;;;;;;19.40;99.90;;;;;;5040276;28;19936;-80
2022/08/15 01:41:33;;;;;;;;;;;19.40;99.90;;;;;;5038852;28;19920;-80
2022/08/15 01:44:04;;;;;;;;;;;19.50;99.90;;;;;;5048010;28;19920;-80
2022/08/15 01:46:32;;;;;;;;;;;19.50;99.90;;;;;;5015931;28;19925;-80
2022/08/15 01:49:03;;;;;;;;;;;19.50;99.90;;;;;;5013177;28;19932;-80
2022/08/15 01:51:28;;;;;;;;;;;19.40;99.90;;;;;;5009286;28;20186;-81
2022/08/15 01:53:59;;;;;;;;;;;19.40;99.90;;;;;;4998268;28;20460;-80
2022/08/15 01:56:36;;;;;;;;;;;19.30;99.90;;;;;;5006902;28;19987;-80
2022/08/15 01:59:03;;;;;;;;;;;19.30;99.90;;;;;;4989995;28;20275;-80
2022/08/15 02:01:47;;;;;;;;;;;19.30;99.90;;;;;;5006595;28;19940;-81
2022/08/15 02:04:15;;;;;;;;;;;19.30;99.90;;;;;;5005070;28;19925;-81
2022/08/15 02:06:42;;;;;;;;;;;19.30;99.90;;;;;;5003690;28;20020;-80
2022/08/15 02:09:09;;;;;;;;;;;19.30;99.90;;;;;;4986174;28;19932;-80
2022/08/15 02:11:35;;;;;;;;;;;19.30;99.90;;;;;;5022668;28;19925;-81
2022/08/15 02:14:01;;;;;;;;;;;19.20;99.90;;;;;;4988055;28;19975;-80
2022/08/15 02:16:30;;;;;;;;;;;19.30;99.90;;;;;;5004461;28;19932;-80
2022/08/15 02:18:59;;;;;;;;;;;19.30;99.90;;;;;;5024482;28;20397;-80
2022/08/15 02:21:25;;;;;;;;;;;19.30;99.90;;;;;;5001123;28;19936;-80
2022/08/15 02:23:51;;;;;;;;;;;19.20;99.90;;;;;;5003707;28;19992;-80
2022/08/15 02:26:16;;;;;;;;;;;19.30;99.90;;;;;;4990961;28;20003;-80
2022/08/15 02:28:42;;;;;;;;;;;19.30;99.90;;;;;;4992259;28;19975;-80
2022/08/15 02:31:10;;;;;;;;;;;19.30;99.90;;;;;;5002775;28;19929;-80
2022/08/15 02:33:35;;;;;;;;;;;19.30;99.90;;;;;;4986391;28;19961;-80
2022/08/15 02:36:01;;;;;;;;;;;19.20;99.90;;;;;;5004238;28;19925;-80
2022/08/15 02:38:27;;;;;;;;;;;19.20;99.90;;;;;;5008098;28;19931;-80
2022/08/15 02:40:53;;;;;;;;;;;19.20;99.90;;;;;;5003507;28;19975;-80
2022/08/15 02:43:19;;;;;;;;;;;19.30;99.90;;;;;;5009186;28;19921;-80
2022/08/15 02:45:47;;;;;;;;;;;19.20;99.90;;;;;;5007103;28;19921;-80
2022/08/15 02:48:13;;;;;;;;;;;19.20;99.90;;;;;;5018941;28;19928;-80
2022/08/15 02:50:39;;;;;;;;;;;19.20;99.90;;;;;;5008423;28;20023;-80
2022/08/15 02:53:17;;;;;;;;;;;19.20;99.90;;;;;;4990454;28;19925;-80
2022/08/15 02:55:45;;;;;;;;;;;19.20;99.90;;;;;;4984867;28;19968;-80
2022/08/15 02:58:11;;;;;;;;;;;19.20;99.90;;;;;;5021017;28;19925;-80
2022/08/15 03:00:37;;;;;;;;;;;19.30;99.90;;;;;;4980949;28;19931;-80
2022/08/15 03:03:06;;;;;;;;;;;19.20;99.90;;;;;;5025020;28;20111;-80
2022/08/15 03:05:32;;;;;;;;;;;19.30;99.90;;;;;;5001310;28;19925;-80
2022/08/15 03:07:58;;;;;;;;;;;19.30;99.90;;;;;;5022372;28;20013;-79
2022/08/15 03:10:24;;;;;;;;;;;19.30;99.90;;;;;;4989912;28;19961;-80
2022/08/15 03:12:54;;;;;;;;;;;19.30;99.90;;;;;;5002460;28;19952;-80
2022/08/15 03:15:20;;;;;;;;;;;19.30;99.90;;;;;;5008314;28;20299;-79
2022/08/15 03:17:46;;;;;;;;;;;19.30;99.90;;;;;;5001583;28;19921;-79
2022/08/15 03:20:12;;;;;;;;;;;19.30;99.90;;;;;;4987309;28;19944;-80
2022/08/15 03:22:45;;;;;;;;;;;19.30;99.90;;;;;;5011118;28;19925;-80
2022/08/15 03:25:11;;;;;;;;;;;19.40;99.90;;;;;;5002068;28;19929;-79
2022/08/15 03:27:39;;;;;;;;;;;19.40;99.90;;;;;;5022497;28;19943;-79
2022/08/15 03:30:07;;;;;;;;;;;19.40;99.90;;;;;;4986393;28;20364;-79
2022/08/15 03:32:40;;;;;;;;;;;19.40;99.90;;;;;;5005171;28;20318;-79
2022/08/15 03:35:06;;;;;;;;;;;19.40;99.90;;;;;;5008629;28;19924;-79
2022/08/15 03:37:32;;;;;;;;;;;19.40;99.90;;;;;;5005201;28;19921;-80
2022/08/15 03:39:58;;;;;;;;;;;19.30;99.90;;;;;;4991509;28;20488;-80
2022/08/15 03:42:25;;;;;;;;;;;19.30;99.90;;;;;;5004034;28;20396;-79
2022/08/15 03:44:50;;;;;;;;;;;19.30;99.90;;;;;;5013204;28;19948;-79
2022/08/15 03:47:16;;;;;;;;;;;19.30;99.90;;;;;;5004275;28;19921;-79
2022/08/15 03:49:42;;;;;;;;;;;19.30;99.90;;;;;;5025641;28;20561;-79
2022/08/15 03:52:08;;;;;;;;;;;19.20;99.90;;;;;;5023901;28;19929;-79
2022/08/15 03:54:35;;;;;;;;;;;19.30;99.90;;;;;;4991238;28;20322;-79
2022/08/15 03:57:00;;;;;;;;;;;19.30;99.90;;;;;;5008851;28;19921;-78
2022/08/15 03:59:26;;;;;;;;;;;19.20;99.90;;;;;;5006254;28;19932;-80
2022/08/15 04:01:51;;;;;;;;;;;19.20;99.90;;;;;;5011868;28;19925;-77
2022/08/15 04:04:17;;;;;;;;;;;19.20;99.90;;;;;;5028197;28;19921;-77
2022/08/15 04:06:43;;;;;;;;;;;19.20;99.90;;;;;;5030071;28;19978;-77
2022/08/15 04:09:10;;;;;;;;;;;19.10;99.90;;;;;;5029911;28;20398;-77
2022/08/15 04:11:36;;;;;;;;;;;19.10;99.90;;;;;;4996513;28;19921;-79
2022/08/15 04:14:01;;;;;;;;;;;19.10;99.90;;;;;;5010475;28;19925;-78
2022/08/15 04:16:27;;;;;;;;;;;19.10;99.90;;;;;;5031083;28;19931;-78
2022/08/15 04:18:53;;;;;;;;;;;19.10;99.90;;;;;;5013391;28;19928;-78
2022/08/15 04:21:18;;;;;;;;;;;19.10;99.90;;;;;;5012988;28;20449;-78
2022/08/15 04:23:45;;;;;;;;;;;19.00;99.90;;;;;;5013498;28;20023;-78
2022/08/15 04:26:11;;;;;;;;;;;19.10;99.90;;;;;;5031412;28;20366;-77
2022/08/15 04:28:36;;;;;;;;;;;19.00;99.90;;;;;;5012405;28;20036;-78
2022/08/15 04:31:04;;;;;;;;;;;19.10;99.90;;;;;;4997721;28;19921;-81
2022/08/15 04:33:30;;;;;;;;;;;19.00;99.90;;;;;;5031288;28;19925;-79
2022/08/15 04:36:16;;;;;;;;;;;19.00;99.90;;;;;;5019444;28;19936;-79
2022/08/15 04:38:42;;;;;;;;;;;19.00;99.90;;;;;;5011723;28;19925;-79
2022/08/15 04:41:11;;;;;;;;;;;19.00;99.90;;;;;;5013702;28;20404;-77
2022/08/15 04:43:38;;;;;;;;;;;19.00;99.90;;;;;;5012878;28;20293;-79
2022/08/15 04:46:04;;;;;;;;;;;19.20;99.90;;;;;;4997773;28;19993;-78
2022/08/15 04:48:33;;;;;;;;;;;19.00;99.90;;;;;;5031169;28;19921;-78
2022/08/15 04:50:59;;;;;;;;;;;19.00;99.90;;;;;;5015499;28;19960;-79
2022/08/15 04:53:27;;;;;;;;;;;19.10;99.90;;;;;;4998092;28;20349;-78
2022/08/15 04:55:54;;;;;;;;;;;19.10;99.90;;;;;;4994584;28;19977;-78
2022/08/15 04:58:19;;;;;;;;;;;19.20;99.90;;;;;;5020996;28;19921;-78
2022/08/15 05:00:53;;;;;;;;;;;19.20;99.90;;;;;;5016922;28;19928;-78
2022/08/15 05:03:19;;;;;;;;;;;19.40;99.90;;;;;;5016723;28;20397;-79
2022/08/15 05:05:51;;;;;;;;;;;19.20;99.90;;;;;;5027864;28;20374;-78
2022/08/15 05:08:17;;;;;;;;;;;19.40;99.90;;;;;;5015338;28;20321;-78
2022/08/15 05:10:44;;;;;;;;;;;19.40;99.90;;;;;;4999884;28;19948;-78
2022/08/15 05:13:14;;;;;;;;;;;19.50;99.90;;;;;;4996543;28;20305;-79
2022/08/15 05:15:41;;;;;;;;;;;19.60;99.90;;;;;;5012432;28;19967;-78
2022/08/15 05:18:07;;;;;;;;;;;19.70;99.90;;;;;;5012853;28;19924;-78
2022/08/15 05:20:32;;;;;;;;;;;19.80;99.90;;;;;;5012290;28;20294;-79
2022/08/15 05:22:59;;;;;;;;;;;19.90;99.90;;;;;;5014608;28;19921;-78
2022/08/15 05:25:25;;;;;;;;;;;20.00;99.90;;;;;;5028324;28;20035;-79
2022/08/15 05:27:52;;;;;;;;;;;20.00;99.90;;;;;;5012209;28;19964;-79
2022/08/15 05:30:18;;;;;;;;;;;20.00;99.90;;;;;;5011282;28;19963;-77
2022/08/15 05:32:43;;;;;;;;;;;20.10;99.90;;;;;;5011648;28;19932;-80
2022/08/15 05:35:10;;;;;;;;;;;20.10;99.90;;;;;;5030012;28;20351;-79
2022/08/15 05:37:36;;;;;;;;;;;20.10;99.90;;;;;;5012416;28;19990;-78
2022/08/15 05:40:03;;;;;;;;;;;20.20;99.90;;;;;;5028760;28;20448;-80
2022/08/15 05:42:51;;;;;;;;;;;20.20;99.90;;;;;;5011542;28;19932;-78
2022/08/15 05:45:37;;;;;;;;;;;20.30;99.90;;;;;;5011873;28;19932;-79
2022/08/15 05:48:14;;;;;;;;;;;20.30;99.90;;;;;;5012612;28;19928;-79
2022/08/15 05:50:47;;;;;;;;;;;20.30;99.90;;;;;;4995116;28;20440;-79
2022/08/15 05:53:22;;;;;;;;;;;20.30;99.90;;;;;;4994826;28;19921;-79
2022/08/15 05:56:00;;;;;;;;;;;20.40;99.90;;;;;;5011616;28;20293;-79
2022/08/15 05:58:33;;;;;;;;;;;20.40;99.90;;;;;;5023726;28;20012;-79
2022/08/15 06:01:12;;;;;;;;;;;20.40;99.90;;;;;;5011443;28;20009;-79
2022/08/15 06:03:40;;;;;;;;;;;20.50;99.90;;;;;;5011159;28;20309;-78
2022/08/15 06:06:07;;;;;;;;;;;20.50;99.90;;;;;;5011625;28;19921;-79
2022/08/15 06:08:35;;;;;;;;;;;20.60;99.90;;;;;;5011223;28;20279;-80
2022/08/15 06:11:08;;;;;;;;;;;20.60;99.90;;;;;;5012082;28;19929;-78
2022/08/15 06:13:37;;;;;;;;;;;20.70;99.90;;;;;;5011630;28;19971;-79
2022/08/15 06:16:06;;;;;;;;;;;20.70;99.90;;;;;;5028859;28;20047;-79
2022/08/15 06:18:34;;;;;;;;;;;20.80;99.90;;;;;;5012837;28;19967;-80
2022/08/15 06:21:02;;;;;;;;;;;20.90;99.90;;;;;;5012997;28;19927;-79
2022/08/15 06:23:31;;;;;;;;;;;20.90;99.90;;;;;;4995436;28;19932;-79
2022/08/15 06:26:14;;;;;;;;;;;21.00;99.90;;;;;;5029632;28;20560;-80
2022/08/15 06:28:59;;;;;;;;;;;21.10;99.90;;;;;;5010178;28;19928;-80
2022/08/15 06:31:31;;;;;;;;;;;21.20;99.90;;;;;;5011984;28;19921;-79
2022/08/15 06:34:16;;;;;;;;;;;21.50;99.90;;;;;;5012449;28;19924;-80
2022/08/15 06:36:44;;;;;;;;;;;21.40;99.90;;;;;;5028337;28;19950;-80
2022/08/15 06:39:33;;;;;;;;;;;21.60;99.90;;;;;;5010994;28;19929;-81
2022/08/15 06:42:04;;;;;;;;;;;21.60;99.90;;;;;;4994562;28;20431;-79
2022/08/15 06:44:31;;;;;;;;;;;21.70;99.90;;;;;;4995167;28;19921;-80
2022/08/15 06:47:07;;;;;;;;;;;21.90;99.90;;;;;;4995631;28;20012;-80
2022/08/15 06:49:37;;;;;;;;;;;22.20;99.90;;;;;;5025131;28;19921;-81
2022/08/15 06:52:03;;;;;;;;;;;22.40;99.90;;;;;;5011073;28;19925;-81
2022/08/15 06:54:29;;;;;;;;;;;22.50;99.90;;;;;;4993626;28;19982;-82
2022/08/15 06:57:02;;;;;;;;;;;22.50;99.90;;;;;;5008582;28;19921;-81
2022/08/15 06:59:39;;;;;;;;;;;22.60;99.90;;;;;;5011129;28;19925;-81
2022/08/15 07:02:09;;;;;;;;;;;22.60;99.90;;;;;;5027952;28;20325;-82
2022/08/15 07:04:35;;;;;;;;;;;22.70;99.90;;;;;;5010064;28;19928;-82
2022/08/15 07:07:04;;;;;;;;;;;22.70;99.90;;;;;;5028219;28;19921;-82
2022/08/15 07:09:49;;;;;;;;;;;22.70;99.90;;;;;;4994763;28;19929;-82
2022/08/15 07:12:33;;;;;;;;;;;22.70;99.90;;;;;;5009851;28;19925;-82
2022/08/15 07:15:02;;;;;;;;;;;22.80;99.90;;;;;;5009957;28;20382;-82
2022/08/15 07:17:34;;;;;;;;;;;22.90;99.90;;;;;;5009975;28;19991;-83
2022/08/15 07:20:00;;;;;;;;;;;22.90;99.90;;;;;;4999274;28;19932;-82
2022/08/15 07:22:26;;;;;;;;;;;23.00;99.90;;;;;;5029338;28;19924;-83
2022/08/15 07:24:53;;;;;;;;;;;23.00;99.90;;;;;;5007784;28;19929;-82
2022/08/15 07:27:26;;;;;;;;;;;23.30;99.90;;;;;;5028692;28;19964;-82
2022/08/15 07:29:56;;;;;;;;;;;23.30;99.90;;;;;;5012873;28;19925;-82
2022/08/15 07:32:28;;;;;;;;;;;23.50;99.90;;;;;;5026369;28;19968;-81
2022/08/15 07:34:57;;;;;;;;;;;23.70;99.90;;;;;;5006809;28;20707;-82
2022/08/15 07:37:23;;;;;;;;;;;23.90;99.90;;;;;;5030837;28;20419;-82
2022/08/15 07:39:56;;;;;;;;;;;24.00;99.90;;;;;;4992140;28;19921;-82
2022/08/15 07:42:22;;;;;;;;;;;24.30;99.90;;;;;;5010261;28;20472;-81
2022/08/15 07:44:49;;;;;;;;;;;24.50;99.90;;;;;;5026154;28;19928;-82
2022/08/15 07:47:24;;;;;;;;;;;24.60;99.90;;;;;;5011308;28;19925;-82
2022/08/15 07:49:59;;;;;;;;;;;24.70;99.90;;;;;;4991370;28;19921;-82
2022/08/15 07:52:25;;;;;;;;;;;24.80;99.90;;;;;;4998017;28;19921;-81
2022/08/15 07:54:52;;;;;;;;;;;24.90;99.90;;;;;;5032506;28;20126;-81
2022/08/15 07:57:23;;;;;;;;;;;25.00;99.90;;;;;;5018361;28;19927;-81
2022/08/15 08:00:11;;;;;;;;;;;25.10;99.90;;;;;;5020878;28;19921;-80
2022/08/15 08:02:43;;;;;;;;;;;25.00;99.90;;;;;;5014232;28;20015;-81
2022/08/15 08:05:09;;;;;;;;;;;24.90;99.90;;;;;;5027143;28;19925;-82
2022/08/15 08:07:36;;;;;;;;;;;24.80;99.90;;;;;;5030775;28;19921;-82
2022/08/15 08:10:11;;;;;;;;;;;24.80;99.90;;;;;;5002953;28;19929;-81
2022/08/15 08:12:42;;;;;;;;;;;24.70;99.90;;;;;;5033868;28;19959;-82
2022/08/15 08:15:20;;;;;;;;;;;24.70;99.90;;;;;;5049976;28;19978;-82
2022/08/15 08:17:46;;;;;;;;;;;24.60;99.90;;;;;;5041444;28;19932;-81
2022/08/15 08:20:45;;;;;;;;;;;24.50;99.90;;;;;;5044000;28;20422;-81
2022/08/15 08:23:14;;;;;;;;;;;24.40;99.90;;;;;;4991365;28;20014;-80
2022/08/15 08:25:58;;;;;;;;;;;24.30;99.90;;;;;;5021223;28;19961;-80
2022/08/15 08:28:36;;;;;;;;;;;24.20;99.90;;;;;;5023056;28;20374;-81
2022/08/15 08:31:02;;;;;;;;;;;24.20;99.90;;;;;;5017544;28;19971;-81
2022/08/15 08:33:47;;;;;;;;;;;24.20;99.90;;;;;;5017899;28;19928;-80
2022/08/15 08:36:24;;;;;;;;;;;24.20;99.90;;;;;;5018077;28;20372;-81
2022/08/15 08:39:21;;;;;;;;;;;24.20;99.90;;;;;;5018818;28;19925;-80
2022/08/15 08:41:47;;;;;;;;;;;24.20;99.90;;;;;;5014662;28;20405;-81
2022/08/15 08:44:24;;;;;;;;;;;24.20;99.90;;;;;;5016366;28;19975;-81
2022/08/15 08:47:11;;;;;;;;;;;24.30;99.90;;;;;;5022688;28;19925;-80
2022/08/15 08:49:56;;;;;;;;;;;24.30;99.90;;;;;;5008983;28;19932;-81
2022/08/15 08:52:32;;;;;;;;;;;24.40;99.90;;;;;;5007778;28;20284;-80
2022/08/15 08:55:10;;;;;;;;;;;24.50;99.90;;;;;;5010654;28;19921;-80
2022/08/15 08:57:42;;;;;;;;;;;24.60;99.90;;;;;;4992432;28;20290;-82
2022/08/15 09:00:07;;;;;;;;;;;24.80;99.90;;;;;;5008288;28;20289;-80
2022/08/15 09:02:43;;;;;;;;;;;25.10;99.90;;;;;;5024288;28;19925;-82
2022/08/15 09:05:17;;;;;;;;;;;25.60;99.90;;;;;;4994818;28;20028;-83
2022/08/15 09:07:46;;;;;;;;;;;26.00;99.90;;;;;;5009816;28;20384;-81
2022/08/15 09:10:12;;;;;;;;;;;26.40;99.90;;;;;;5012619;28;19925;-82
2022/08/15 09:15:29;;;;;;;;;;;26.50;99.90;;;;;;5005148;28;19944;-83
2022/08/15 09:18:01;;;;;;;;;;;26.70;99.90;;;;;;5028324;28;19927;-83
2022/08/15 09:20:32;;;;;;;;;;;26.90;99.90;;;;;;5009960;28;19932;-84
2022/08/15 09:22:59;;;;;;;;;;;27.00;99.90;;;;;;5011076;28;19928;-82
2022/08/15 09:25:27;;;;;;;;;;;27.10;99.90;;;;;;4992177;28;19953;-83
2022/08/15 09:28:04;;;;;;;;;;;27.30;99.90;;;;;;4991154;28;19921;-83
2022/08/15 09:30:30;;;;;;;;;;;27.60;99.90;;;;;;5016334;28;19968;-82
2022/08/15 09:33:08;;;;;;;;;;;28.00;99.90;;;;;;4996415;28;19971;-85
2022/08/15 09:35:57;;;;;;;;;;;28.30;99.90;;;;;;5015071;28;19925;-84
2022/08/15 09:38:26;;;;;;;;;;;28.50;99.90;;;;;;5011269;28;19933;-85
2022/08/15 09:41:01;;;;;;;;;;;28.70;99.90;;;;;;5025900;28;19932;-84
2022/08/15 09:43:38;;;;;;;;;;;29.00;99.90;;;;;;5010811;28;19924;-85
2022/08/15 09:46:25;;;;;;;;;;;29.20;99.90;;;;;;4995002;28;19960;-89
2022/08/15 09:49:00;;;;;;;;;;;29.40;99.90;;;;;;5021318;28;19975;-83
2022/08/15 09:51:47;;;;;;;;;;;29.50;99.90;;;;;;5031727;28;19924;-84
2022/08/15 09:54:23;;;;;;;;;;;29.60;99.90;;;;;;5015992;28;20341;-88
2022/08/15 09:56:51;;;;;;;;;;;29.70;99.90;;;;;;5026729;28;19936;-86
2022/08/15 09:59:21;;;;;;;;;;;29.90;99.90;;;;;;5024881;28;20051;-86
2022/08/15 10:01:47;;;;;;;;;;;30.00;99.90;;;;;;5027064;28;19970;-88
2022/08/15 10:04:13;;;;;;;;;;;30.00;99.90;;;;;;5001839;28;20373;-88
2022/08/15 10:07:17;;;;;;;;;;;29.80;99.90;;;;;;5013666;28;19961;-83
2022/08/15 10:09:59;;;;;;;;;;;29.50;99.90;;;;;;5021040;28;19928;-86
2022/08/15 10:12:24;;;;;;;;;;;29.30;99.90;;;;;;5045672;28;19935;-84
2022/08/15 10:14:53;;;;;;;;;;;29.20;99.90;;;;;;4990240;28;19921;-85
2022/08/15 10:17:40;;;;;;;;;;;29.20;99.90;;;;;;5015598;28;19968;-82
2022/08/15 10:20:15;;;;;;;;;;;29.20;99.90;;;;;;5000373;28;19931;-86
2022/08/15 10:22:59;;;;;;;;;;;29.20;99.90;;;;;;5018075;28;19978;-84
2022/08/15 10:25:31;;;;;;;;;;;29.20;99.90;;;;;;5025253;28;19921;-84
2022/08/15 10:27:58;;;;;;;;;;;29.30;99.90;;;;;;5012535;28;19983;-86
2022/08/15 10:30:25;;;;;;;;;;;29.40;99.90;;;;;;4996530;28;20267;-85
2022/08/15 10:32:52;;;;;;;;;;;29.40;99.90;;;;;;5024935;28;20306;-85
2022/08/15 10:35:21;;;;;;;;;;;29.40;99.90;;;;;;4994099;28;20374;-87
2022/08/15 10:37:51;;;;;;;;;;;29.50;99.90;;;;;;5009969;28;20455;-83
2022/08/15 10:40:31;;;;;;;;;;;29.30;99.90;;;;;;5014704;28;19925;-80
2022/08/15 10:43:17;;;;;;;;;;;29.10;99.90;;;;;;5023494;28;19925;-84
2022/08/15 10:45:49;;;;;;;;;;;28.90;99.90;;;;;;5011315;28;19971;-86
2022/08/15 10:48:41;;;;;;;;;;;28.70;99.90;;;;;;5033203;28;19929;-87
2022/08/15 10:51:09;;;;;;;;;;;28.50;99.90;;;;;;4984690;28;20086;-87
2022/08/15 10:53:47;;;;;;;;;;;28.30;99.90;;;;;;5014696;28;19971;-84
2022/08/15 10:56:15;;;;;;;;;;;28.20;99.90;;;;;;5006958;28;19976;-81
2022/08/15 10:58:41;;;;;;;;;;;28.10;99.90;;;;;;5009827;28;19924;-84
2022/08/15 11:01:11;;;;;;;;;;;28.00;99.90;;;;;;5022059;28;19932;-87
2022/08/15 11:03:40;;;;;;;;;;;28.00;99.90;;;;;;5016222;28;20301;-85
2022/08/15 11:06:07;;;;;;;;;;;28.10;99.90;;;;;;5022459;28;20275;-85
2022/08/15 11:08:36;;;;;;;;;;;28.10;99.90;;;;;;5014120;28;19921;-85
2022/08/15 11:11:08;;;;;;;;;;;28.00;99.90;;;;;;5009878;28;19933;-86
2022/08/15 11:13:35;;;;;;;;;;;28.00;99.90;;;;;;4996243;28;19971;-82
2022/08/15 11:16:09;;;;;;;;;;;27.80;99.90;;;;;;5023025;28;19931;-88
2022/08/15 11:18:38;;;;;;;;;;;27.70;99.90;;;;;;4994318;28;19931;-84
2022/08/15 11:21:14;;;;;;;;;;;27.50;99.90;;;;;;5012353;28;20020;-86
2022/08/15 11:23:41;;;;;;;;;;;27.40;99.90;;;;;;5007718;28;19932;-84
2022/08/15 11:26:08;;;;;;;;;;;27.20;99.90;;;;;;5009826;28;19925;-86
2022/08/15 11:28:34;;;;;;;;;;;27.00;99.90;;;;;;5016194;28;20412;-84
2022/08/15 11:31:11;;;;;;;;;;;26.80;99.90;;;;;;4993880;28;19925;-85
2022/08/15 11:33:43;;;;;;;;;;;26.80;99.90;;;;;;5019174;28;19925;-86
2022/08/15 11:36:16;;;;;;;;;;;26.60;99.90;;;;;;5017966;28;19988;-87
2022/08/15 11:38:45;;;;;;;;;;;26.50;99.90;;;;;;5020973;28;19925;-81
2022/08/15 11:41:17;;;;;;;;;;;26.30;99.90;;;;;;4994877;28;19921;-82
2022/08/15 11:43:43;;;;;;;;;;;26.10;99.90;;;;;;4994745;28;20416;-82
2022/08/15 11:46:09;;;;;;;;;;;25.80;99.90;;;;;;5015812;28;19956;-81
2022/08/15 11:48:39;;;;;;;;;;;25.60;99.90;;;;;;4995555;28;19932;-82
2022/08/15 11:51:06;;;;;;;;;;;25.40;99.90;;;;;;5025197;28;20304;-84
2022/08/15 11:53:54;;;;;;;;;;;25.10;99.90;;;;;;5030259;28;19960;-84
2022/08/15 11:56:23;;;;;;;;;;;25.00;99.90;;;;;;4998901;28;20362;-85
2022/08/15 11:58:49;;;;;;;;;;;24.90;99.90;;;;;;5016644;28;20003;-85
2022/08/15 12:01:28;;;;;;;;;;;24.80;99.90;;;;;;5013972;28;19988;-83
2022/08/15 12:04:02;;;;;;;;;;;24.70;99.90;;;;;;5014538;28;20039;-85
2022/08/15 12:06:30;;;;;;;;;;;24.70;99.90;;;;;;5007991;28;20374;-84
2022/08/15 12:09:04;;;;;;;;;;;24.60;99.90;;;;;;5025851;28;20058;-84
2022/08/15 12:11:30;;;;;;;;;;;24.70;99.90;;;;;;5010139;28;19932;-84
2022/08/15 12:13:58;;;;;;;;;;;24.60;99.90;;;;;;4996829;28;19925;-83
2022/08/15 12:16:34;;;;;;;;;;;24.60;99.90;;;;;;5009656;28;20012;-83
2022/08/15 12:19:19;;;;;;;;;;;24.60;99.90;;;;;;4998394;28;19936;-82
2022/08/15 12:21:48;;;;;;;;;;;24.70;99.90;;;;;;5031243;28;20328;-82
2022/08/15 12:24:20;;;;;;;;;;;24.60;99.90;;;;;;5011381;28;20555;-83
2022/08/15 12:26:45;;;;;;;;;;;24.70;99.90;;;;;;4989656;28;20146;-83
2022/08/15 12:29:11;;;;;;;;;;;24.70;99.90;;;;;;4996704;28;20317;-83
2022/08/15 12:31:38;;;;;;;;;;;24.70;99.90;;;;;;5028357;28;19979;-82
2022/08/15 12:34:07;;;;;;;;;;;24.70;99.90;;;;;;5025100;28;20028;-83
2022/08/15 12:36:32;;;;;;;;;;;24.70;99.90;;;;;;5001385;28;20436;-83
2022/08/15 12:38:58;;;;;;;;;;;24.70;99.90;;;;;;5009595;28;19925;-83
2022/08/15 12:41:24;;;;;;;;;;;24.80;99.90;;;;;;5023607;28;19932;-83
2022/08/15 12:43:51;;;;;;;;;;;24.70;99.90;;;;;;5020937;28;19925;-83
2022/08/15 12:46:17;;;;;;;;;;;24.80;99.90;;;;;;5017037;28;19995;-85
2022/08/15 12:48:46;;;;;;;;;;;24.90;99.90;;;;;;5017594;28;20027;-85
2022/08/15 12:51:12;;;;;;;;;;;25.00;99.90;;;;;;5017587;28;19925;-83
2022/08/15 12:53:38;;;;;;;;;;;25.10;99.90;;;;;;5016804;28;19925;-83
2022/08/15 12:56:04;;;;;;;;;;;25.30;99.90;;;;;;5023820;28;20420;-82
2022/08/15 12:58:31;;;;;;;;;;;25.40;99.90;;;;;;5002198;28;19932;-82
2022/08/15 13:00:57;;;;;;;;;;;25.50;99.90;;;;;;5000930;28;19932;-83
2022/08/15 13:03:25;;;;;;;;;;;25.70;99.90;;;;;;5016442;28;19925;-84
2022/08/15 13:05:53;;;;;;;;;;;25.80;99.90;;;;;;5022559;28;19932;-82
2022/08/15 13:08:19;;;;;;;;;;;26.10;99.90;;;;;;4991806;28;19929;-83
2022/08/15 13:10:45;;;;;;;;;;;26.40;99.90;;;;;;5011619;28;19928;-85
2022/08/15 13:13:12;;;;;;;;;;;26.70;99.90;;;;;;5017112;28;19967;-85
2022/08/15 13:15:37;;;;;;;;;;;26.90;99.90;;;;;;5014484;28;19964;-87
2022/08/15 13:18:04;;;;;;;;;;;27.10;99.90;;;;;;5009540;28;19963;-81
2022/08/15 13:25:59;;;;;;;;;;;27.10;99.90;;;;;;5009010;28;19925;-83
2022/08/15 13:28:25;;;;;;;;;;;27.20;99.90;;;;;;5026979;28;19925;-88
2022/08/15 13:30:51;;;;;;;;;;;27.20;99.90;;;;;;4993130;28;19924;-88
2022/08/15 13:33:17;;;;;;;;;;;27.10;99.90;;;;;;4992164;28;20425;-87
2022/08/15 13:35:43;;;;;;;;;;;27.10;99.90;;;;;;4993917;28;20297;-89
2022/08/15 13:38:08;;;;;;;;;;;27.10;99.90;;;;;;4993397;28;20023;-88
2022/08/15 13:40:34;;;;;;;;;;;27.00;99.90;;;;;;5027683;28;19925;-87
2022/08/15 13:43:02;;;;;;;;;;;27.10;99.90;;;;;;5010485;28;19925;-85
2022/08/15 13:45:27;;;;;;;;;;;27.10;99.90;;;;;;5027944;28;19925;-88
2022/08/15 13:47:54;;;;;;;;;;;27.10;99.90;;;;;;4990727;28;19929;-88
2022/08/15 13:50:20;;;;;;;;;;;27.10;99.90;;;;;;5029326;28;19921;-88
2022/08/15 13:52:45;;;;;;;;;;;27.10;99.90;;;;;;5028438;28;19979;-88
2022/08/15 13:55:11;;;;;;;;;;;27.10;99.90;;;;;;5010129;28;19929;-89
2022/08/15 13:57:36;;;;;;;;;;;27.10;99.90;;;;;;5028076;28;19996;-88
2022/08/15 14:00:07;;;;;;;;;;;27.10;99.90;;;;;;4989457;28;19925;-87
2022/08/15 14:02:34;;;;;;;;;;;27.10;99.90;;;;;;5025558;28;19935;-90
2022/08/15 14:05:00;;;;;;;;;;;27.10;99.90;;;;;;5007731;28;20448;-85
2022/08/15 14:07:29;;;;;;;;;;;27.10;99.90;;;;;;5005828;28;19929;-86
2022/08/15 14:09:54;;;;;;;;;;;27.10;99.90;;;;;;5006063;28;20298;-88
2022/08/15 14:12:20;;;;;;;;;;;27.10;99.90;;;;;;5005614;28;19950;-88
2022/08/15 14:14:46;;;;;;;;;;;27.10;99.90;;;;;;4989004;28;19925;-89
2022/08/15 14:17:11;;;;;;;;;;;27.10;99.90;;;;;;5007131;28;19925;-88
2022/08/15 14:19:38;;;;;;;;;;;27.10;99.90;;;;;;5006495;28;19925;-84
2022/08/15 14:22:05;;;;;;;;;;;27.10;99.90;;;;;;5005004;28;20488;-87
2022/08/15 14:24:32;;;;;;;;;;;27.10;99.90;;;;;;4983021;28;20464;-88
2022/08/15 14:26:58;;;;;;;;;;;27.10;99.90;;;;;;4999077;28;20398;-85
2022/08/15 14:29:26;;;;;;;;;;;27.20;99.90;;;;;;5000328;28;19968;-85
2022/08/15 14:31:52;;;;;;;;;;;27.30;99.90;;;;;;4982464;28;19929;-84
2022/08/15 14:34:17;;;;;;;;;;;27.40;99.90;;;;;;5000778;28;19987;-86
2022/08/15 14:36:44;;;;;;;;;;;27.50;99.90;;;;;;4983515;28;19952;-83
2022/08/15 14:39:10;;;;;;;;;;;27.50;99.90;;;;;;5000688;28;19941;-85